createdAt,value
2023-05-05T00:00:01.236Z,79.36
2023-05-05T00:03:03.355Z,79.55
2023-05-05T00:06:05.728Z,79.95
2023-05-05T00:09:07.684Z,80.15
2023-05-05T00:12:09.529Z,80.07
2023-05-05T00:15:11.355Z,80.25
2023-05-05T00:18:16.197Z,80.44
2023-05-05T00:21:18.516Z,80.68
2023-05-05T00:24:21.352Z,80.64
2023-05-05T00:27:23.168Z,80.45
2023-05-05T00:30:25.401Z,80.24
2023-05-05T00:33:27.257Z,80.23
2023-05-05T00:36:29.059Z,80.14
2023-05-05T00:39:32.122Z,80.34
2023-05-05T00:42:44.988Z,80.34
2023-05-05T00:45:48.028Z,80.51
2023-05-05T00:48:50.997Z,81.07
2023-05-05T00:51:52.780Z,81.28
2023-05-05T00:54:54.584Z,81.52
2023-05-05T00:57:58.023Z,81.81
2023-05-05T01:00:59.997Z,82.04
2023-05-05T01:04:01.997Z,82.10
2023-05-05T01:07:35.796Z,81.90
2023-05-05T01:10:57.309Z,81.75
2023-05-05T01:14:12.769Z,81.67
2023-05-05T01:17:22.288Z,82.27
2023-05-05T01:20:32.127Z,83.05
2023-05-05T01:23:50.045Z,83.19
2023-05-05T01:27:34.073Z,83.22
2023-05-05T01:31:01.660Z,83.67
2023-05-05T01:34:08.894Z,83.82
2023-05-05T01:37:15.553Z,83.75
2023-05-05T01:40:21.354Z,83.78
2023-05-05T01:43:23.607Z,84.47
2023-05-05T01:46:25.799Z,84.89
2023-05-05T01:49:28.363Z,85.14
2023-05-05T01:52:30.503Z,85.17
2023-05-05T01:55:32.510Z,85.21
2023-05-05T01:58:34.766Z,86.73
2023-05-05T02:01:39.303Z,89.46
2023-05-05T02:04:43.534Z,90.64
2023-05-05T02:07:49.501Z,89.00
2023-05-05T02:10:52.402Z,88.18
2023-05-05T02:13:54.962Z,87.88
2023-05-05T02:16:57.142Z,87.58
2023-05-05T02:20:00.164Z,87.64
2023-05-05T02:23:02.067Z,87.66
2023-05-05T02:26:07.309Z,87.71
2023-05-05T02:29:17.601Z,87.95
2023-05-05T02:32:34.217Z,87.98
2023-05-05T02:35:39.260Z,87.82
2023-05-05T02:38:43.883Z,88.17
2023-05-05T02:41:47.393Z,88.06
2023-05-05T02:44:50.754Z,88.27
2023-05-05T02:47:52.628Z,88.64
2023-05-05T02:50:54.349Z,88.58
2023-05-05T02:53:56.362Z,88.65
2023-05-05T02:56:58.987Z,88.89
2023-05-05T03:00:09.527Z,90.01
2023-05-05T03:03:37.802Z,89.38
2023-05-05T03:06:41.497Z,89.24
2023-05-05T03:09:47.116Z,89.50
2023-05-05T03:12:53.227Z,89.29
2023-05-05T03:15:56.386Z,89.08
2023-05-05T03:18:59.585Z,89.15
2023-05-05T03:22:03.836Z,89.01
2023-05-05T03:25:06.358Z,88.89
2023-05-05T03:28:08.160Z,88.95
2023-05-05T03:31:10.054Z,88.84
2023-05-05T03:34:11.897Z,88.64
2023-05-05T03:37:13.683Z,88.64
2023-05-05T03:40:15.411Z,88.64
2023-05-05T03:43:17.264Z,88.46
2023-05-05T03:46:19.187Z,88.42
2023-05-05T03:49:20.966Z,88.33
2023-05-05T03:52:22.853Z,88.29
2023-05-05T03:55:25.177Z,88.42
2023-05-05T03:58:27.007Z,88.22
2023-05-05T04:01:30.057Z,86.50
2023-05-05T04:04:32.174Z,81.82
2023-05-05T04:07:33.983Z,83.70
2023-05-05T04:10:36.092Z,85.16
2023-05-05T04:13:37.990Z,87.12
2023-05-05T04:16:40.042Z,86.78
2023-05-05T04:19:42.143Z,86.69
2023-05-05T04:22:43.917Z,86.26
2023-05-05T04:25:45.759Z,87.19
2023-05-05T04:28:47.531Z,85.80
2023-05-05T04:31:50.630Z,81.45
2023-05-05T04:34:53.023Z,80.43
2023-05-05T04:37:54.879Z,78.70
2023-05-05T04:40:56.663Z,78.15
2023-05-05T04:43:58.497Z,76.21
2023-05-05T04:47:00.827Z,74.40
2023-05-05T04:50:02.776Z,74.36
2023-05-05T04:53:04.615Z,75.09
2023-05-05T04:56:06.726Z,76.46
2023-05-05T04:59:08.560Z,78.03
2023-05-05T05:02:10.375Z,79.06
2023-05-05T05:05:12.324Z,78.64
2023-05-05T05:08:16.574Z,78.49
2023-05-05T05:11:18.332Z,78.32
2023-05-05T05:14:20.110Z,78.61
2023-05-05T05:17:22.750Z,78.97
2023-05-05T05:20:24.622Z,78.69
2023-05-05T05:23:26.851Z,78.40
2023-05-05T05:26:28.695Z,78.44
2023-05-05T05:29:30.470Z,78.32
2023-05-05T05:32:33.467Z,78.40
2023-05-05T05:35:35.405Z,80.26
2023-05-05T05:38:37.363Z,78.90
2023-05-05T05:41:39.147Z,78.33
2023-05-05T05:44:41.293Z,77.57
2023-05-05T05:47:43.155Z,76.08
2023-05-05T05:50:45.021Z,74.88
2023-05-05T05:53:46.867Z,73.17
2023-05-05T05:56:48.627Z,72.99
2023-05-05T05:59:50.850Z,68.53
2023-05-05T06:02:52.799Z,69.94
2023-05-05T06:05:54.721Z,70.49
2023-05-05T06:08:56.639Z,70.32
2023-05-05T06:11:58.437Z,68.59
2023-05-05T06:15:00.286Z,67.76
2023-05-05T06:18:02.219Z,64.33
2023-05-05T06:21:04.493Z,64.97
2023-05-05T06:24:06.524Z,61.40
2023-05-05T06:27:08.229Z,63.83
2023-05-05T06:30:10.750Z,62.11
2023-05-05T06:33:12.695Z,63.95
2023-05-05T06:36:14.809Z,63.65
2023-05-05T06:39:17.033Z,62.88
2023-05-05T06:42:19.027Z,62.40
2023-05-05T06:45:20.799Z,57.09
2023-05-05T06:48:22.662Z,60.63
2023-05-05T06:51:25.042Z,56.66
2023-05-05T06:54:27.051Z,57.78
2023-05-05T06:57:28.976Z,56.65
2023-05-05T07:00:30.877Z,56.79
2023-05-05T07:03:32.859Z,56.36
2023-05-05T07:06:35.117Z,55.02
2023-05-05T07:09:36.992Z,54.04
2023-05-05T07:12:38.857Z,52.47
2023-05-05T07:15:46.713Z,52.62
2023-05-05T07:18:48.900Z,51.03
2023-05-05T07:21:51.943Z,51.02
2023-05-05T07:24:53.841Z,50.29
2023-05-05T07:27:56.545Z,47.83
2023-05-05T07:30:58.372Z,48.10
2023-05-05T07:34:00.333Z,47.98
2023-05-05T07:37:02.262Z,47.41
2023-05-05T07:40:04.346Z,48.45
2023-05-05T07:43:06.247Z,48.46
2023-05-05T07:46:08.761Z,49.40
2023-05-05T07:49:10.755Z,47.80
2023-05-05T07:52:12.579Z,46.76
2023-05-05T07:55:14.457Z,46.38
2023-05-05T07:58:16.398Z,46.29
2023-05-05T08:01:18.427Z,46.34
2023-05-05T08:04:20.236Z,46.44
2023-05-05T08:07:22.331Z,45.04
2023-05-05T08:10:24.361Z,46.93
2023-05-05T08:13:26.136Z,46.71
2023-05-05T08:16:28.054Z,46.58
2023-05-05T08:19:29.992Z,45.30
2023-05-05T08:22:32.047Z,45.12
2023-05-05T08:25:33.879Z,44.86
2023-05-05T08:28:39.174Z,44.93
2023-05-05T08:31:41.195Z,43.99
2023-05-05T08:34:43.056Z,44.39
2023-05-05T08:37:44.930Z,45.17
2023-05-05T08:40:46.951Z,43.72
2023-05-05T08:43:49.318Z,44.17
2023-05-05T08:46:51.499Z,43.33
2023-05-05T08:49:53.951Z,43.84
2023-05-05T08:53:17.992Z,43.69
2023-05-05T08:56:24.237Z,44.40
2023-05-05T08:59:30.102Z,45.08
2023-05-05T09:02:32.906Z,44.79
2023-05-05T09:05:35.918Z,44.73
2023-05-05T09:08:38.680Z,43.97
2023-05-05T09:11:41.785Z,44.34
2023-05-05T09:14:43.657Z,43.32
2023-05-05T09:17:45.848Z,43.63
2023-05-05T09:20:47.634Z,43.33
2023-05-05T09:24:08.607Z,45.06
2023-05-05T09:27:21.694Z,45.64
2023-05-05T09:30:25.145Z,42.52
2023-05-05T09:33:31.163Z,43.81
2023-05-05T09:36:47.576Z,42.10
2023-05-05T09:39:54.446Z,43.32
2023-05-05T09:43:01.495Z,42.69
2023-05-05T09:46:07.978Z,40.50
2023-05-05T09:49:18.116Z,41.22
2023-05-05T09:52:19.914Z,42.29
2023-05-05T09:55:22.064Z,40.62
2023-05-05T09:58:28.267Z,41.71
2023-05-05T10:01:30.228Z,38.80
2023-05-05T10:04:33.023Z,41.57
2023-05-05T10:07:35.766Z,42.16
2023-05-05T10:10:53.805Z,42.96
2023-05-05T10:13:55.905Z,41.44
2023-05-05T10:16:58.458Z,41.50
2023-05-05T10:20:01.562Z,39.78
2023-05-05T10:23:06.602Z,40.43
2023-05-05T10:26:10.599Z,37.81
2023-05-05T10:29:46.065Z,39.15
2023-05-05T10:33:00.881Z,37.27
2023-05-05T10:36:07.754Z,38.98
2023-05-05T10:39:10.910Z,39.04
2023-05-05T10:42:13.699Z,38.56
2023-05-05T10:45:16.025Z,37.42
2023-05-05T10:48:34.756Z,36.95
2023-05-05T10:51:54.895Z,36.92
2023-05-05T10:55:19.432Z,35.12
2023-05-05T10:58:43.739Z,36.61
2023-05-05T11:01:53.932Z,36.88
2023-05-05T11:05:10.844Z,36.83
2023-05-05T11:08:25.820Z,36.52
2023-05-05T11:12:03.676Z,36.60
2023-05-05T11:15:23.948Z,35.86
2023-05-05T11:18:33.789Z,34.37
2023-05-05T11:22:01.925Z,35.16
2023-05-05T11:25:36.161Z,36.17
2023-05-05T11:29:03.648Z,34.51
2023-05-05T11:32:15.980Z,34.90
2023-05-05T11:35:18.016Z,34.09
2023-05-05T11:38:24.612Z,35.10
2023-05-05T11:41:32.495Z,35.38
2023-05-05T11:44:34.680Z,32.53
2023-05-05T11:47:36.612Z,34.08
2023-05-05T11:50:38.831Z,33.35
2023-05-05T11:53:49.853Z,32.55
2023-05-05T11:57:05.027Z,34.34
2023-05-05T12:00:09.731Z,31.65
2023-05-05T12:03:12.490Z,33.49
2023-05-05T12:06:14.466Z,32.69
2023-05-05T12:09:17.592Z,32.84
2023-05-05T12:12:20.487Z,30.93
2023-05-05T12:15:29.950Z,31.13
2023-05-05T12:18:31.801Z,31.28
2023-05-05T12:21:34.701Z,31.62
2023-05-05T12:24:36.446Z,32.24
2023-05-05T12:27:38.941Z,31.86
2023-05-05T12:30:41.121Z,29.54
2023-05-05T12:33:43.183Z,30.56
2023-05-05T12:36:45.020Z,31.38
2023-05-05T12:39:46.886Z,32.59
2023-05-05T12:42:49.218Z,31.42
2023-05-05T12:46:05.641Z,32.93
2023-05-05T12:49:07.894Z,35.26
2023-05-05T12:52:10.115Z,33.75
2023-05-05T12:55:12.954Z,33.40
2023-05-05T12:58:14.824Z,34.31
2023-05-05T13:01:16.744Z,34.61
2023-05-05T13:04:19.763Z,33.99
2023-05-05T13:07:22.494Z,34.51
2023-05-05T13:10:28.362Z,31.47
2023-05-05T13:13:32.232Z,33.46
2023-05-05T13:16:34.436Z,33.52
2023-05-05T13:19:41.953Z,33.60
2023-05-05T13:22:44.100Z,33.40
2023-05-05T13:25:46.053Z,34.17
2023-05-05T13:28:48.085Z,33.67
2023-05-05T13:31:50.692Z,33.36
2023-05-05T13:34:53.062Z,33.38
2023-05-05T13:37:54.865Z,31.27
2023-05-05T13:40:56.781Z,32.11
2023-05-05T13:43:58.595Z,31.48
2023-05-05T13:47:00.438Z,33.47
2023-05-05T13:50:02.395Z,33.53
2023-05-05T13:53:04.337Z,33.40
2023-05-05T13:56:06.376Z,32.64
2023-05-05T13:59:08.216Z,33.79
2023-05-05T14:02:10.080Z,33.58
2023-05-05T14:05:11.861Z,33.22
2023-05-05T14:08:13.837Z,33.03
2023-05-05T14:11:17.999Z,33.63
2023-05-05T14:14:20.148Z,32.11
2023-05-05T14:17:21.886Z,33.02
2023-05-05T14:20:23.790Z,33.42
2023-05-05T14:23:25.668Z,33.39
2023-05-05T14:26:27.588Z,33.41
2023-05-05T14:29:29.360Z,33.21
2023-05-05T14:32:31.123Z,33.59
2023-05-05T14:35:32.913Z,33.27
2023-05-05T14:38:34.730Z,33.99
2023-05-05T14:41:36.558Z,33.84
2023-05-05T14:44:38.968Z,33.43
2023-05-05T14:47:40.959Z,33.72
2023-05-05T14:50:42.816Z,34.31
2023-05-05T14:53:44.822Z,31.84
2023-05-05T14:56:46.759Z,33.14
2023-05-05T14:59:52.002Z,30.93
2023-05-05T15:02:53.899Z,32.18
2023-05-05T15:05:55.882Z,32.20
2023-05-05T15:08:57.724Z,32.19
2023-05-05T15:11:59.863Z,31.86
2023-05-05T15:15:01.932Z,31.13
2023-05-05T15:18:04.066Z,31.08
2023-05-05T15:21:06.093Z,33.22
2023-05-05T15:24:08.010Z,32.88
2023-05-05T15:27:09.771Z,32.99
2023-05-05T15:30:13.985Z,33.44
2023-05-05T15:33:17.703Z,33.70
2023-05-05T15:36:22.574Z,33.04
2023-05-05T15:39:25.886Z,33.38
2023-05-05T15:42:27.763Z,33.36
2023-05-05T15:45:32.751Z,33.75
2023-05-05T15:48:37.794Z,34.03
2023-05-05T15:51:40.616Z,34.12
2023-05-05T15:54:42.914Z,34.45
2023-05-05T15:57:45.139Z,35.10
2023-05-05T16:00:47.878Z,35.03
2023-05-05T16:03:50.484Z,34.58
2023-05-05T16:06:52.461Z,34.86
2023-05-05T16:09:59.337Z,35.15
2023-05-05T16:13:05.072Z,35.53
2023-05-05T16:16:09.866Z,35.75
2023-05-05T16:19:12.087Z,34.87
2023-05-05T16:22:13.928Z,35.71
2023-05-05T16:25:18.296Z,35.37
2023-05-05T16:28:20.074Z,34.52
2023-05-05T16:31:22.088Z,35.91
2023-05-05T16:34:24.528Z,36.22
2023-05-05T16:37:26.966Z,36.58
2023-05-05T16:40:28.904Z,36.51
2023-05-05T16:43:30.758Z,37.12
2023-05-05T16:46:35.600Z,37.21
2023-05-05T16:49:37.642Z,37.69
2023-05-05T16:52:39.430Z,37.97
2023-05-05T16:55:41.368Z,38.33
2023-05-05T17:01:45.203Z,38.93
2023-05-05T17:04:46.954Z,39.37
2023-05-05T17:07:48.721Z,39.84
2023-05-05T17:10:50.784Z,40.52
2023-05-05T17:13:53.020Z,41.00
2023-05-05T17:16:54.929Z,41.53
2023-05-05T17:19:57.053Z,42.43
2023-05-05T17:22:59.138Z,43.59
2023-05-05T17:26:00.964Z,44.06
2023-05-05T17:29:02.844Z,44.18
2023-05-05T17:32:05.199Z,44.44
2023-05-05T17:35:07.382Z,44.73
2023-05-05T17:38:10.114Z,45.09
2023-05-05T17:41:12.605Z,45.65
2023-05-05T17:44:14.603Z,46.05
2023-05-05T17:47:16.443Z,46.78
2023-05-05T17:50:21.937Z,47.19
2023-05-05T17:53:24.662Z,47.67
2023-05-05T17:56:29.068Z,48.28
2023-05-05T17:59:31.633Z,48.53
2023-05-05T18:02:36.655Z,49.06
2023-05-05T18:05:38.604Z,49.22
2023-05-05T18:08:40.738Z,49.60
2023-05-05T18:11:42.894Z,49.71
2023-05-05T18:14:44.709Z,49.99
2023-05-05T18:17:46.444Z,50.17
2023-05-05T18:20:48.760Z,50.60
2023-05-05T18:23:50.684Z,52.38
2023-05-05T18:26:52.744Z,52.29
2023-05-05T18:29:55.000Z,53.32
2023-05-05T18:32:56.801Z,54.33
2023-05-05T18:35:58.552Z,55.19
2023-05-05T18:39:00.587Z,59.29
2023-05-05T18:42:03.530Z,59.29
2023-05-05T18:45:05.777Z,61.77
2023-05-05T18:48:07.840Z,59.67
2023-05-05T18:51:09.878Z,59.74
2023-05-05T18:54:11.642Z,60.01
2023-05-05T18:57:13.368Z,60.04
2023-05-05T19:00:16.740Z,60.20
2023-05-05T19:03:19.619Z,60.32
2023-05-05T19:06:21.595Z,60.39
2023-05-05T19:09:23.490Z,60.81
2023-05-05T19:12:25.261Z,61.34
2023-05-05T19:15:27.451Z,61.38
2023-05-05T19:18:29.286Z,61.79
2023-05-05T19:21:31.624Z,61.94
2023-05-05T19:24:35.450Z,62.23
2023-05-05T19:27:37.224Z,62.33
2023-05-05T19:30:38.964Z,62.43
2023-05-05T19:33:45.088Z,62.90
2023-05-05T19:36:46.856Z,63.29
2023-05-05T19:39:49.646Z,63.81
2023-05-05T19:42:51.570Z,63.94
2023-05-05T19:45:53.817Z,65.03
2023-05-05T19:48:55.949Z,65.23
2023-05-05T19:51:58.891Z,65.73
2023-05-05T19:55:01.094Z,67.00
2023-05-05T19:58:03.058Z,67.69
2023-05-05T20:01:04.916Z,67.47
2023-05-05T20:04:06.777Z,68.03
2023-05-05T20:07:09.106Z,69.61
2023-05-05T20:10:13.244Z,69.82
2023-05-05T20:13:16.162Z,69.47
2023-05-05T20:16:18.279Z,69.49
2023-05-05T20:19:20.112Z,69.80
2023-05-05T20:22:21.891Z,69.61
2023-05-05T20:25:23.914Z,70.14
2023-05-05T20:28:26.830Z,70.43
2023-05-05T20:31:28.778Z,70.68
2023-05-05T20:34:31.359Z,71.07
2023-05-05T20:37:33.185Z,71.21
2023-05-05T20:40:35.242Z,71.59
2023-05-05T20:43:37.509Z,71.93
2023-05-05T20:46:39.429Z,72.10
2023-05-05T20:49:41.541Z,72.51
2023-05-05T20:52:43.334Z,72.95
2023-05-05T20:55:45.259Z,72.90
2023-05-05T20:58:47.114Z,73.25
2023-05-05T21:01:49.057Z,73.86
2023-05-05T21:04:51.110Z,74.15
2023-05-05T21:07:53.882Z,74.33
2023-05-05T21:10:55.822Z,74.66
2023-05-05T21:13:57.568Z,74.68
2023-05-05T21:16:59.335Z,75.29
2023-05-05T21:20:01.621Z,75.40
2023-05-05T21:23:03.985Z,75.82
2023-05-05T21:26:05.967Z,76.00
2023-05-05T21:29:08.521Z,76.31
2023-05-05T21:32:11.394Z,76.43
2023-05-05T21:35:13.316Z,76.92
2023-05-05T21:38:15.097Z,76.94
2023-05-05T21:41:17.045Z,78.59
2023-05-05T21:44:18.805Z,77.99
2023-05-05T21:47:20.607Z,79.61
2023-05-05T21:50:22.519Z,78.71
2023-05-05T21:53:24.745Z,78.74
2023-05-05T21:56:26.799Z,78.61
2023-05-05T21:59:28.715Z,78.71
2023-05-05T22:02:30.752Z,78.76
2023-05-05T22:05:32.544Z,78.77
2023-05-05T22:08:34.940Z,78.95
2023-05-05T22:11:36.761Z,79.02
2023-05-05T22:14:38.485Z,79.06
2023-05-05T22:17:40.930Z,79.39
2023-05-05T22:20:43.321Z,80.12
2023-05-05T22:23:46.076Z,80.50
2023-05-05T22:26:47.828Z,80.54
2023-05-05T22:29:49.707Z,80.72
2023-05-05T22:32:51.713Z,81.19
2023-05-05T22:35:53.490Z,81.00
2023-05-05T22:38:55.231Z,80.72
2023-05-05T22:41:57.384Z,80.54
2023-05-05T22:44:59.303Z,80.62
2023-05-05T22:48:01.101Z,80.60
2023-05-05T22:51:03.466Z,80.65
2023-05-05T22:54:05.477Z,80.38
2023-05-05T22:57:07.837Z,80.94
2023-05-05T23:00:10.733Z,82.21
2023-05-05T23:03:12.679Z,82.08
2023-05-05T23:06:14.522Z,81.95
2023-05-05T23:09:16.347Z,85.26
2023-05-05T23:12:18.260Z,87.61
2023-05-05T23:15:20.349Z,88.39
2023-05-05T23:18:22.202Z,85.62
2023-05-05T23:21:24.030Z,84.93
2023-05-05T23:24:26.515Z,84.95
2023-05-05T23:27:28.398Z,84.82
2023-05-05T23:30:30.552Z,84.62
2023-05-05T23:33:41.993Z,84.12
2023-05-05T23:36:44.148Z,85.20
2023-05-05T23:39:45.970Z,85.38
2023-05-05T23:42:47.793Z,85.46
2023-05-05T23:45:49.566Z,86.71
2023-05-05T23:48:51.451Z,89.28
2023-05-05T23:51:53.312Z,89.71
2023-05-05T23:54:55.019Z,88.79
2023-05-05T23:57:56.986Z,87.37
